Little Fort, Canada
Current Conditions -  °F | °C
As of 8:00 PM on Wednesday 17 Dec 2014 (Local Time) from CYKA Reporting Station
Overcast Overcast  
Wind Chill: 28°   Ceiling: 9000
Heat Index: 34°   Visibility: 40mi
Dew Point: 27°   Wind: 7mph
Humidity: 75%   Direction: 60°ENE
Pressure: 29.93"   Gusts: NA
Location:  51.43°N, 120.2°W
Report Text: CYKA 180400Z 06006KT 40SM SCT065 BKN090 OVC160 01/M03 A2993 RMK SC4AC3AC1 SLP150
Loading
Personal Weather Stations






























Interactive Weather Map New forecast layout! Learn more

10-Day Weather Forecast

Advertisements
Track Severe Weather on mobile